Time;durP1;ratioP1;P1;durP2;ratioP2;P2;SDS_P1;SDS_P2;PMS_P1;PMS_P2;Temp;Humidity;BMP_temperature;BMP_pressure;BME280_temperature;BME280_humidity;BME280_pressure;Samples;Min_cycle;Max_cycle;Signal;HPM_P1;HPM_P2
2021/07/23 00:01:22;;;;;;;11.00;9.82;;;18.00;99.90;;;;;;5091150;28;20265;-61
2021/07/23 00:03:49;;;;;;;12.65;10.52;;;18.00;99.90;;;;;;5090548;28;20220;-62
2021/07/23 00:06:16;;;;;;;11.57;9.80;;;18.00;99.90;;;;;;5090792;28;20208;-62
2021/07/23 00:08:42;;;;;;;11.50;9.35;;;18.00;99.90;;;;;;5090871;28;20200;-62
2021/07/23 00:11:09;;;;;;;13.55;9.98;;;18.00;99.90;;;;;;5091064;28;20204;-62
2021/07/23 00:13:36;;;;;;;10.73;9.52;;;18.00;99.90;;;;;;5090796;28;20228;-62
2021/07/23 00:16:02;;;;;;;12.13;9.48;;;18.00;99.90;;;;;;5090770;28;20698;-62
2021/07/23 00:18:30;;;;;;;12.02;10.07;;;17.90;99.90;;;;;;5090709;28;20212;-62
2021/07/23 00:20:57;;;;;;;13.50;10.07;;;18.00;99.90;;;;;;5090929;28;20250;-62
2021/07/23 00:23:24;;;;;;;12.23;9.43;;;17.90;99.90;;;;;;5090673;28;20289;-61
2021/07/23 00:25:51;;;;;;;13.13;9.60;;;17.90;99.90;;;;;;5090728;28;20228;-61
2021/07/23 00:28:18;;;;;;;14.20;10.20;;;17.80;99.90;;;;;;5090691;28;20600;-61
2021/07/23 00:30:44;;;;;;;14.85;10.30;;;17.80;99.90;;;;;;5090538;28;20749;-62
2021/07/23 00:33:11;;;;;;;11.23;9.50;;;17.80;99.90;;;;;;5090435;28;20723;-62
2021/07/23 00:35:39;;;;;;;12.48;9.63;;;17.70;99.90;;;;;;5090581;28;20664;-61
2021/07/23 00:38:06;;;;;;;12.07;10.32;;;17.70;99.90;;;;;;5090794;28;20207;-62
2021/07/23 00:40:34;;;;;;;15.70;9.95;;;17.60;99.90;;;;;;5090782;28;20215;-61
2021/07/23 00:43:00;;;;;;;14.60;9.93;;;17.60;99.90;;;;;;5090408;28;20737;-61
2021/07/23 00:45:27;;;;;;;11.85;9.57;;;17.50;99.90;;;;;;5090546;28;20240;-61
2021/07/23 00:48:00;;;;;;;12.30;10.15;;;17.60;99.90;;;;;;5090372;28;20295;-61
2021/07/23 00:50:28;;;;;;;10.95;9.80;;;17.50;99.90;;;;;;5094418;28;20227;-61
2021/07/23 00:52:56;;;;;;;12.35;9.98;;;17.50;99.90;;;;;;5094283;28;20232;-60
2021/07/23 00:55:24;;;;;;;12.88;9.35;;;17.50;99.90;;;;;;5094270;28;20625;-62
2021/07/23 00:57:51;;;;;;;11.82;9.02;;;17.50;99.90;;;;;;5094208;28;20204;-62
2021/07/23 01:00:19;;;;;;;13.15;10.00;;;17.50;99.90;;;;;;5094382;28;20594;-62
2021/07/23 01:02:46;;;;;;;12.23;9.60;;;17.50;99.90;;;;;;5093999;28;20231;-61
2021/07/23 01:05:13;;;;;;;12.10;9.82;;;17.50;99.90;;;;;;5094212;28;20228;-62
2021/07/23 01:07:39;;;;;;;10.88;9.50;;;17.50;99.90;;;;;;5094210;28;20282;-61
2021/07/23 01:10:08;;;;;;;12.18;9.45;;;17.50;99.90;;;;;;5094187;28;20204;-62
2021/07/23 01:12:36;;;;;;;12.60;9.77;;;17.50;99.90;;;;;;5093943;28;20278;-62
2021/07/23 01:15:03;;;;;;;10.93;9.82;;;17.50;99.90;;;;;;5093758;28;20204;-62
2021/07/23 01:17:30;;;;;;;12.32;10.40;;;17.50;99.90;;;;;;5094520;28;20204;-61
2021/07/23 01:20:02;;;;;;;12.87;10.33;;;17.60;99.90;;;;;;5094105;28;20583;-62
2021/07/23 01:22:30;;;;;;;11.13;9.50;;;17.70;99.90;;;;;;5093929;28;20623;-61
2021/07/23 01:24:59;;;;;;;14.63;9.85;;;17.70;99.90;;;;;;5093684;28;20570;-62
2021/07/23 01:27:27;;;;;;;11.93;9.55;;;17.70;99.90;;;;;;5094312;28;20200;-61
2021/07/23 01:30:00;;;;;;;10.65;9.30;;;17.70;99.90;;;;;;5093758;28;20298;-61
2021/07/23 01:32:27;;;;;;;12.00;9.53;;;17.70;99.90;;;;;;5093712;28;20236;-61
2021/07/23 01:34:54;;;;;;;13.95;9.30;;;17.80;99.90;;;;;;5093689;28;20197;-61
2021/07/23 01:37:22;;;;;;;12.10;9.90;;;17.80;99.90;;;;;;5093633;28;20215;-61
2021/07/23 01:39:50;;;;;;;10.95;9.30;;;17.80;99.90;;;;;;5093451;28;20254;-61
2021/07/23 01:42:18;;;;;;;13.57;10.05;;;17.90;99.90;;;;;;5093465;28;20235;-61
2021/07/23 01:44:45;;;;;;;14.07;9.55;;;17.90;99.90;;;;;;5093774;28;20224;-62
2021/07/23 01:47:11;;;;;;;13.00;9.60;;;18.00;99.90;;;;;;5093748;28;20208;-61
2021/07/23 01:49:38;;;;;;;12.07;9.20;;;18.00;99.90;;;;;;5093664;28;20211;-61
2021/07/23 01:52:05;;;;;;;12.48;8.52;;;17.90;99.90;;;;;;5093445;28;20208;-62
2021/07/23 01:54:32;;;;;;;11.57;9.07;;;17.90;99.90;;;;;;5093091;28;20215;-62
2021/07/23 01:56:59;;;;;;;11.38;8.65;;;17.90;99.90;;;;;;5093050;28;20208;-61
2021/07/23 01:59:27;;;;;;;10.35;8.85;;;17.90;99.90;;;;;;5092990;28;20317;-61
2021/07/23 02:01:53;;;;;;;12.13;8.82;;;17.80;99.90;;;;;;5093441;28;20204;-61
2021/07/23 02:04:20;;;;;;;10.80;9.32;;;17.80;99.90;;;;;;5093040;28;20253;-62
2021/07/23 02:06:47;;;;;;;12.18;9.27;;;17.80;99.90;;;;;;5093350;28;20204;-61
2021/07/23 02:09:13;;;;;;;9.25;8.25;;;17.80;99.90;;;;;;5092892;28;20204;-61
2021/07/23 02:11:40;;;;;;;12.77;9.60;;;17.70;99.90;;;;;;5093186;28;20245;-61
2021/07/23 02:14:07;;;;;;;11.93;8.93;;;17.60;99.90;;;;;;5093147;28;20232;-60
2021/07/23 02:16:35;;;;;;;10.27;9.10;;;17.50;99.90;;;;;;5092974;28;20287;-61
2021/07/23 02:19:02;;;;;;;11.73;9.25;;;17.40;99.90;;;;;;5092709;28;20208;-62
2021/07/23 02:21:29;;;;;;;11.95;9.23;;;17.40;99.90;;;;;;5093016;28;20265;-61
2021/07/23 02:23:56;;;;;;;13.00;9.43;;;17.40;99.90;;;;;;5092400;28;20565;-60
2021/07/23 02:26:23;;;;;;;10.63;9.52;;;17.40;99.90;;;;;;5092721;28;20231;-61
2021/07/23 02:28:50;;;;;;;13.53;9.70;;;17.40;99.90;;;;;;5092498;28;20231;-62
2021/07/23 02:31:17;;;;;;;11.60;9.40;;;17.50;99.90;;;;;;5092475;28;20200;-61
2021/07/23 02:33:46;;;;;;;11.15;9.52;;;17.50;99.90;;;;;;5092031;28;20239;-62
2021/07/23 02:36:13;;;;;;;16.60;10.57;;;17.40;99.90;;;;;;5092292;28;20208;-61
2021/07/23 02:38:40;;;;;;;14.80;10.13;;;17.40;99.90;;;;;;5092317;28;20209;-61
2021/07/23 02:41:07;;;;;;;14.70;9.65;;;17.30;99.90;;;;;;5092615;28;20204;-61
2021/07/23 02:43:34;;;;;;;11.05;9.13;;;17.30;99.90;;;;;;5091856;28;20623;-61
2021/07/23 02:46:00;;;;;;;13.02;9.23;;;17.30;99.90;;;;;;5092452;28;20270;-62
2021/07/23 02:48:27;;;;;;;14.32;9.10;;;17.30;99.90;;;;;;5092024;28;20636;-61
2021/07/23 02:50:55;;;;;;;15.77;9.48;;;17.20;99.90;;;;;;5091885;28;20597;-61
2021/07/23 02:53:22;;;;;;;14.30;9.53;;;17.00;99.90;;;;;;5092010;28;20224;-61
2021/07/23 02:55:51;;;;;;;14.68;12.25;;;16.90;99.90;;;;;;5092063;28;20228;-60
2021/07/23 02:58:18;;;;;;;14.07;10.60;;;16.90;99.90;;;;;;5091846;28;20294;-61
2021/07/23 03:00:45;;;;;;;14.23;9.27;;;16.90;99.90;;;;;;5091778;28;20211;-61
2021/07/23 03:03:11;;;;;;;14.10;10.07;;;16.90;99.90;;;;;;5091711;28;20761;-62
2021/07/23 03:05:38;;;;;;;13.55;10.25;;;16.80;99.90;;;;;;5091838;28;20764;-61
2021/07/23 03:08:09;;;;;;;14.40;10.18;;;16.90;99.90;;;;;;5091980;28;20694;-62
2021/07/23 03:10:36;;;;;;;13.60;9.95;;;16.80;99.90;;;;;;5092230;28;20212;-61
2021/07/23 03:13:02;;;;;;;14.27;9.93;;;16.80;99.90;;;;;;5091256;28;20232;-62
2021/07/23 03:15:29;;;;;;;12.70;9.33;;;16.80;99.90;;;;;;5091599;28;20204;-61
2021/07/23 03:17:56;;;;;;;13.60;10.07;;;16.90;99.90;;;;;;5091333;28;20671;-62
2021/07/23 03:20:23;;;;;;;10.98;9.48;;;16.80;99.90;;;;;;5091836;28;20208;-62
2021/07/23 03:22:49;;;;;;;14.55;9.50;;;16.70;99.90;;;;;;5091799;28;20224;-62
2021/07/23 03:25:18;;;;;;;11.57;9.80;;;16.70;99.90;;;;;;5091326;28;20227;-62
2021/07/23 03:27:44;;;;;;;11.93;9.70;;;16.70;99.90;;;;;;5091216;28;20274;-62
2021/07/23 03:30:12;;;;;;;11.60;9.70;;;16.70;99.90;;;;;;5091454;28;20580;-61
2021/07/23 03:32:39;;;;;;;14.50;9.63;;;16.60;99.90;;;;;;5113672;22;20236;-62
2021/07/23 03:35:07;;;;;;;11.23;9.13;;;16.70;99.90;;;;;;5093487;28;20204;-61
2021/07/23 03:37:34;;;;;;;11.98;9.32;;;16.60;99.90;;;;;;5093822;28;20211;-61
2021/07/23 03:40:00;;;;;;;11.03;9.57;;;16.60;99.90;;;;;;5093061;28;20208;-61
2021/07/23 03:42:28;;;;;;;11.48;9.45;;;16.60;99.90;;;;;;5093854;28;20231;-60
2021/07/23 03:44:55;;;;;;;13.40;10.27;;;16.60;99.90;;;;;;5093356;28;20659;-62
2021/07/23 03:47:22;;;;;;;13.47;9.43;;;16.60;99.90;;;;;;5093233;28;20257;-60
2021/07/23 03:49:48;;;;;;;10.13;8.97;;;16.60;99.90;;;;;;5092777;28;20609;-61
2021/07/23 03:52:15;;;;;;;11.20;9.33;;;16.50;99.90;;;;;;5093325;28;20602;-61
2021/07/23 03:54:42;;;;;;;12.33;9.80;;;16.50;99.90;;;;;;5093498;28;20230;-61
2021/07/23 03:57:08;;;;;;;11.30;8.47;;;16.50;99.90;;;;;;5093298;28;20200;-61
2021/07/23 03:59:37;;;;;;;11.33;9.37;;;16.50;99.90;;;;;;5093496;28;20203;-61
2021/07/23 04:02:04;;;;;;;10.43;8.67;;;16.50;99.90;;;;;;5093255;28;20622;-61
2021/07/23 04:04:31;;;;;;;13.17;9.07;;;16.50;99.90;;;;;;5093874;28;20224;-61
2021/07/23 04:06:59;;;;;;;16.83;9.37;;;16.60;99.90;;;;;;5093954;28;20228;-61
2021/07/23 04:09:25;;;;;;;11.37;9.53;;;16.60;99.90;;;;;;5093889;28;20208;-61
2021/07/23 04:11:53;;;;;;;12.27;9.37;;;16.60;99.90;;;;;;5093554;28;20225;-61
2021/07/23 04:14:20;;;;;;;9.87;8.87;;;16.70;99.90;;;;;;5092501;28;20267;-61
2021/07/23 04:16:48;;;;;;;13.37;9.77;;;16.70;99.90;;;;;;5092708;28;20200;-61
2021/07/23 04:19:15;;;;;;;14.33;9.47;;;16.80;99.90;;;;;;5092372;28;20208;-61
2021/07/23 04:21:42;;;;;;;13.23;9.40;;;16.90;99.90;;;;;;5093279;28;20257;-61
2021/07/23 04:24:10;;;;;;;14.70;8.90;;;16.90;99.90;;;;;;5095675;28;20832;-61
2021/07/23 04:26:37;;;;;;;10.80;8.83;;;17.00;99.90;;;;;;5097485;28;20303;-61
2021/07/23 04:29:04;;;;;;;12.23;9.10;;;17.00;99.90;;;;;;5096220;28;20215;-62
2021/07/23 04:31:31;;;;;;;13.57;9.23;;;17.10;99.90;;;;;;5095757;28;20242;-61
2021/07/23 04:34:00;;;;;;;12.67;8.97;;;17.20;99.90;;;;;;5095584;28;20238;-61
2021/07/23 04:36:27;;;;;;;12.40;8.88;;;17.20;99.90;;;;;;5095454;28;20778;-61
2021/07/23 04:38:53;;;;;;;10.97;8.93;;;17.30;99.90;;;;;;5095042;28;20284;-61
2021/07/23 04:41:21;;;;;;;12.03;9.50;;;17.40;99.90;;;;;;5095271;28;20208;-62
2021/07/23 04:43:48;;;;;;;11.55;9.07;;;17.50;99.90;;;;;;5095051;28;20596;-61
2021/07/23 04:46:14;;;;;;;11.82;9.88;;;17.50;99.90;;;;;;5095123;28;20231;-61
2021/07/23 04:48:41;;;;;;;10.40;9.13;;;17.60;99.90;;;;;;5094973;28;20266;-61
2021/07/23 04:51:09;;;;;;;15.63;9.50;;;17.60;99.90;;;;;;5094926;28;20212;-61
2021/07/23 04:53:36;;;;;;;11.45;9.30;;;17.70;99.90;;;;;;5094522;28;20227;-61
2021/07/23 04:56:04;;;;;;;11.95;9.48;;;17.80;99.90;;;;;;5095368;28;20302;-61
2021/07/23 04:58:32;;;;;;;14.10;9.85;;;17.90;99.90;;;;;;5094977;28;20262;-60
2021/07/23 05:00:58;;;;;;;13.68;9.50;;;18.00;99.90;;;;;;5094929;28;20204;-61
2021/07/23 05:03:36;;;;;;;15.15;9.85;;;18.10;99.90;;;;;;5094517;28;20220;-61
2021/07/23 05:06:05;;;;;;;13.75;9.93;;;18.20;99.90;;;;;;5094966;28;20478;-62
2021/07/23 05:08:33;;;;;;;12.25;8.80;;;18.30;99.90;;;;;;5094776;28;20261;-62
2021/07/23 05:11:00;;;;;;;11.38;8.93;;;18.50;99.90;;;;;;5094798;28;20208;-59
2021/07/23 05:13:27;;;;;;;12.50;9.48;;;18.60;99.90;;;;;;5094260;28;20228;-60
2021/07/23 05:15:54;;;;;;;11.05;9.52;;;18.80;99.90;;;;;;5094589;28;20269;-60
2021/07/23 05:18:21;;;;;;;13.93;9.15;;;18.90;99.90;;;;;;5094591;28;20215;-62
2021/07/23 05:20:48;;;;;;;14.02;10.63;;;19.10;99.90;;;;;;5094752;28;20734;-62
2021/07/23 05:23:15;;;;;;;12.05;8.57;;;19.30;99.90;;;;;;5094717;28;20282;-62
2021/07/23 05:25:43;;;;;;;9.80;8.80;;;19.40;99.90;;;;;;5094546;28;20245;-61
2021/07/23 05:28:10;;;;;;;12.32;8.48;;;19.60;99.90;;;;;;5094514;28;20599;-61
2021/07/23 05:30:37;;;;;;;12.85;8.90;;;19.70;99.90;;;;;;5095113;28;20213;-62
2021/07/23 05:33:03;;;;;;;13.15;9.00;;;19.90;99.90;;;;;;5094670;28;20236;-61
2021/07/23 05:35:30;;;;;;;10.02;8.60;;;19.90;99.90;;;;;;5094053;28;20705;-62
2021/07/23 05:37:57;;;;;;;14.85;8.48;;;20.30;99.90;;;;;;5095918;28;20227;-62
2021/07/23 05:40:23;;;;;;;10.10;8.35;;;21.30;99.90;;;;;;5095472;28;20207;-62
2021/07/23 05:42:53;;;;;;;9.85;8.23;;;22.30;99.90;;;;;;5095049;28;20720;-62
2021/07/23 05:45:20;;;;;;;14.02;10.13;;;23.40;99.90;;;;;;5094464;28;20708;-62
2021/07/23 05:47:46;;;;;;;11.48;7.80;;;24.50;99.90;;;;;;5094299;28;20262;-61
2021/07/23 05:50:13;;;;;;;11.25;8.15;;;25.80;99.90;;;;;;5094037;28;20212;-61
2021/07/23 05:52:40;;;;;;;9.15;7.35;;;26.90;99.90;;;;;;5093854;28;20228;-61
2021/07/23 05:55:07;;;;;;;9.05;8.05;;;27.80;99.90;;;;;;5093583;28;20265;-61
2021/07/23 05:57:34;;;;;;;11.77;8.15;;;28.50;99.90;;;;;;5093802;28;20200;-61
2021/07/23 06:00:03;;;;;;;9.60;7.65;;;29.30;99.90;;;;;;5093820;28;20200;-61
2021/07/23 06:02:29;;;;;;;9.27;8.38;;;30.00;99.00;;;;;;5094221;28;20265;-61
2021/07/23 06:04:56;;;;;;;12.43;8.63;;;30.60;95.90;;;;;;5093779;28;20200;-61
2021/07/23 06:07:23;;;;;;;10.75;7.35;;;31.20;94.10;;;;;;5093688;28;20274;-61
2021/07/23 06:09:50;;;;;;;9.55;8.02;;;32.00;91.60;;;;;;5093499;28;20200;-61
2021/07/23 06:12:16;;;;;;;11.77;8.88;;;32.50;88.90;;;;;;5093291;28;20200;-62
2021/07/23 06:14:43;;;;;;;12.68;7.57;;;32.90;84.00;;;;;;5093252;28;20217;-61
2021/07/23 06:17:11;;;;;;;9.77;7.72;;;33.20;81.20;;;;;;5093807;28;20249;-61
2021/07/23 06:19:38;;;;;;;11.93;8.20;;;33.10;79.30;;;;;;5093518;28;20215;-61
2021/07/23 06:22:06;;;;;;;10.80;8.18;;;33.20;78.30;;;;;;5093728;28;20204;-62
2021/07/23 06:24:32;;;;;;;11.63;8.50;;;33.50;75.80;;;;;;5093214;28;20255;-62
2021/07/23 06:26:59;;;;;;;11.95;8.40;;;33.80;75.40;;;;;;5092965;28;20228;-61
2021/07/23 06:29:26;;;;;;;12.10;8.48;;;34.50;72.70;;;;;;5093170;28;20269;-61
2021/07/23 06:31:57;;;;;;;13.23;8.15;;;35.30;69.40;;;;;;5093066;28;20648;-61
2021/07/23 06:34:25;;;;;;;10.32;8.95;;;36.00;66.40;;;;;;5092948;28;20232;-61
2021/07/23 06:36:52;;;;;;;9.93;8.93;;;36.50;63.40;;;;;;5093212;28;20200;-61
2021/07/23 06:39:18;;;;;;;11.43;9.07;;;36.90;61.00;;;;;;5092921;28;20208;-61
2021/07/23 06:41:45;;;;;;;12.75;9.40;;;36.90;59.90;;;;;;5093410;28;20200;-61
2021/07/23 06:44:13;;;;;;;15.95;10.32;;;37.20;58.10;;;;;;5093020;28;20223;-61
2021/07/23 06:46:39;;;;;;;12.07;9.45;;;37.10;58.60;;;;;;5092949;28;20228;-62
2021/07/23 06:49:06;;;;;;;10.68;9.20;;;37.10;57.90;;;;;;5093866;28;20472;-61
2021/07/23 06:51:34;;;;;;;13.93;9.32;;;37.50;57.40;;;;;;5093423;28;20667;-61
2021/07/23 06:54:01;;;;;;;13.13;9.52;;;37.70;56.00;;;;;;5093328;28;20228;-61
2021/07/23 06:56:28;;;;;;;11.15;9.05;;;37.50;56.40;;;;;;5093977;28;20200;-61
2021/07/23 06:58:54;;;;;;;15.25;10.25;;;38.00;55.40;;;;;;5093166;28;20200;-61
2021/07/23 07:01:21;;;;;;;14.77;9.63;;;38.70;53.70;;;;;;5092837;28;20204;-61
2021/07/23 07:03:48;;;;;;;11.90;9.30;;;39.10;52.80;;;;;;5092508;28;20273;-61
2021/07/23 07:06:14;;;;;;;18.70;10.02;;;38.80;52.60;;;;;;5092646;28;20220;-61
2021/07/23 07:08:42;;;;;;;12.20;8.95;;;37.80;54.80;;;;;;5092930;28;20208;-61
2021/07/23 07:11:09;;;;;;;13.25;9.15;;;38.00;54.40;;;;;;5093548;28;20208;-61
2021/07/23 07:13:36;;;;;;;12.23;9.82;;;38.60;53.70;;;;;;5094258;28;20238;-61
2021/07/23 07:16:03;;;;;;;12.73;9.57;;;39.30;52.30;;;;;;5093199;28;20215;-61
2021/07/23 07:18:29;;;;;;;14.40;9.40;;;39.70;51.20;;;;;;5092637;28;20235;-62
2021/07/23 07:20:56;;;;;;;11.23;9.40;;;39.70;51.00;;;;;;5092892;28;20252;-62
2021/07/23 07:23:23;;;;;;;12.65;8.98;;;39.50;51.60;;;;;;5092341;28;20220;-62
2021/07/23 07:25:51;;;;;;;11.90;9.55;;;39.40;51.00;;;;;;5092796;28;20212;-61
2021/07/23 07:28:17;;;;;;;12.27;8.93;;;39.40;51.30;;;;;;5092545;28;20286;-61
2021/07/23 07:30:47;;;;;;;13.45;8.93;;;40.10;50.90;;;;;;5092675;28;20203;-62
2021/07/23 07:33:14;;;;;;;12.10;8.65;;;40.70;49.10;;;;;;5092036;28;20231;-61
2021/07/23 07:35:44;;;;;;;12.13;9.23;;;41.20;48.70;;;;;;5092119;28;20219;-62
2021/07/23 07:38:10;;;;;;;12.40;8.85;;;41.50;47.30;;;;;;5091962;28;20460;-61
2021/07/23 07:40:38;;;;;;;11.07;9.57;;;41.60;47.20;;;;;;5089077;28;20214;-61
2021/07/23 07:43:06;;;;;;;10.82;8.65;;;41.60;46.80;;;;;;5091423;28;20253;-63
2021/07/23 07:45:33;;;;;;;12.30;8.65;;;41.30;46.60;;;;;;5091631;28;20748;-65
2021/07/23 07:47:59;;;;;;;9.98;8.32;;;40.70;47.70;;;;;;5091294;28;20223;-65
2021/07/23 07:50:26;;;;;;;10.40;9.02;;;41.00;47.00;;;;;;5091353;28;20616;-64
2021/07/23 07:52:53;;;;;;;11.60;9.13;;;41.30;46.40;;;;;;5091165;28;20260;-64
2021/07/23 07:55:20;;;;;;;10.85;9.73;;;41.40;46.50;;;;;;5079536;28;20636;-66
2021/07/23 07:57:46;;;;;;;10.02;9.02;;;41.60;45.90;;;;;;5070408;28;20196;-65
2021/07/23 08:00:15;;;;;;;11.73;8.80;;;42.20;45.10;;;;;;5071464;28;20257;-65
2021/07/23 08:02:43;;;;;;;13.52;8.50;;;42.10;44.40;;;;;;5071132;28;20788;-64
2021/07/23 08:05:10;;;;;;;12.65;9.38;;;42.30;44.20;;;;;;5071066;28;20239;-62
2021/07/23 08:07:38;;;;;;;10.90;8.80;;;42.70;43.40;;;;;;5070717;28;20228;-62
2021/07/23 08:10:05;;;;;;;11.73;8.95;;;42.80;43.50;;;;;;5070640;28;20643;-62
2021/07/23 08:12:32;;;;;;;12.43;8.52;;;43.00;43.40;;;;;;5071163;28;20228;-62
2021/07/23 08:15:00;;;;;;;11.18;8.18;;;42.90;42.80;;;;;;5070600;28;20204;-62
2021/07/23 08:17:28;;;;;;;13.57;8.27;;;42.80;42.80;;;;;;5070898;28;20204;-62
2021/07/23 08:19:57;;;;;;;8.80;7.80;;;43.10;41.70;;;;;;5070840;28;20215;-62
2021/07/23 08:22:23;;;;;;;10.63;8.13;;;43.20;41.20;;;;;;5070733;28;20232;-62
2021/07/23 08:24:51;;;;;;;9.40;7.70;;;42.60;41.40;;;;;;5070743;28;20208;-62
2021/07/23 08:27:21;;;;;;;9.10;8.13;;;42.60;41.10;;;;;;5070866;28;20227;-62
2021/07/23 08:29:47;;;;;;;9.93;8.15;;;42.70;40.90;;;;;;5070446;28;20244;-62
2021/07/23 08:32:15;;;;;;;8.73;7.15;;;43.10;40.20;;;;;;5070631;28;20204;-62
2021/07/23 08:34:43;;;;;;;10.55;7.40;;;43.00;40.20;;;;;;5070632;28;20593;-62
2021/07/23 08:37:09;;;;;;;8.43;7.60;;;42.90;39.90;;;;;;5070992;28;20265;-62
2021/07/23 08:39:36;;;;;;;10.60;7.95;;;42.50;40.80;;;;;;5070954;28;20204;-62
2021/07/23 08:42:28;;;;;;;10.02;7.70;;;42.00;41.30;;;;;;5070868;28;20738;-62
2021/07/23 08:44:55;;;;;;;9.02;8.02;;;41.20;42.00;;;;;;5070874;28;20672;-62
2021/07/23 08:47:22;;;;;;;8.90;8.00;;;39.60;45.00;;;;;;5070660;28;20726;-62
2021/07/23 08:49:51;;;;;;;8.80;7.93;;;37.80;47.70;;;;;;5070243;28;20208;-62
2021/07/23 08:52:18;;;;;;;12.13;7.95;;;36.50;49.00;;;;;;5070582;28;20211;-62
2021/07/23 08:54:45;;;;;;;11.07;8.10;;;34.90;51.50;;;;;;5070587;28;20205;-62
2021/07/23 08:57:12;;;;;;;9.43;7.93;;;33.90;54.00;;;;;;5070213;28;20673;-62
2021/07/23 08:59:39;;;;;;;10.35;8.23;;;32.80;55.60;;;;;;5070230;28;20208;-62
2021/07/23 09:02:07;;;;;;;10.07;8.43;;;31.80;58.00;;;;;;5070540;28;20208;-62
2021/07/23 09:04:36;;;;;;;12.85;8.43;;;30.90;59.60;;;;;;5070554;28;20610;-62
2021/07/23 09:07:31;;;;;;;12.15;9.63;;;30.50;60.70;;;;;;5070637;28;20229;-62
2021/07/23 09:10:03;;;;;;;11.95;9.13;;;29.90;62.00;;;;;;5071958;28;20216;-62
2021/07/23 09:12:43;;;;;;;13.07;9.25;;;29.10;65.10;;;;;;5072688;28;20797;-63
2021/07/23 09:15:18;;;;;;;12.38;8.85;;;28.90;66.80;;;;;;5073772;28;20624;-62
2021/07/23 09:17:45;;;;;;;10.38;8.25;;;28.50;67.50;;;;;;5073870;28;20638;-63
2021/07/23 09:20:13;;;;;;;12.60;8.82;;;28.30;68.90;;;;;;5073699;28;20204;-63
2021/07/23 09:22:45;;;;;;;9.85;8.05;;;27.90;69.90;;;;;;5073502;28;20229;-65
2021/07/23 09:25:13;;;;;;;10.20;8.10;;;27.60;71.50;;;;;;5074002;28;20216;-61
2021/07/23 09:27:40;;;;;;;10.55;8.68;;;27.50;72.50;;;;;;5073637;28;20278;-63
2021/07/23 09:30:09;;;;;;;11.30;7.97;;;27.50;71.90;;;;;;5073935;28;20269;-63
2021/07/23 09:35:11;;;;;;;12.30;8.32;;;27.50;71.80;;;;;;5070331;28;20224;-64
2021/07/23 09:37:57;;;;;;;13.68;8.57;;;27.60;72.70;;;;;;5073162;28;20208;-63
2021/07/23 09:40:24;;;;;;;10.50;8.30;;;27.70;73.10;;;;;;5073053;28;20291;-65
2021/07/23 09:42:58;;;;;;;12.60;8.35;;;27.70;73.60;;;;;;5076020;28;20765;-65
2021/07/23 09:45:29;;;;;;;10.48;7.55;;;27.60;73.40;;;;;;5092893;28;20215;-63
2021/07/23 09:48:09;;;;;;;13.80;9.93;;;27.60;74.10;;;;;;5092927;28;20315;-64
2021/07/23 09:50:39;;;;;;;14.43;9.38;;;27.80;74.10;;;;;;5093424;28;20433;-64
2021/07/23 09:53:09;;;;;;;9.32;7.78;;;28.00;73.30;;;;;;5092891;28;20228;-64
2021/07/23 09:55:36;;;;;;;8.95;7.05;;;28.20;72.40;;;;;;5092215;28;20231;-65
2021/07/23 09:58:06;;;;;;;7.72;6.93;;;28.40;71.90;;;;;;5092625;28;20203;-65
2021/07/23 10:00:38;;;;;;;10.30;7.70;;;28.60;69.40;;;;;;5092936;28;20272;-65
2021/07/23 10:03:13;;;;;;;8.55;6.85;;;28.80;69.20;;;;;;5092894;28;20220;-64
2021/07/23 10:05:44;;;;;;;10.00;7.00;;;29.00;68.80;;;;;;5092329;28;20204;-63
2021/07/23 10:08:19;;;;;;;10.98;8.93;;;29.10;68.20;;;;;;5092523;28;20252;-61
2021/07/23 10:10:50;;;;;;;8.57;7.10;;;29.20;67.30;;;;;;5092976;28;20207;-61
2021/07/23 10:13:19;;;;;;;8.63;7.38;;;29.30;66.80;;;;;;5092956;28;20262;-60
2021/07/23 10:15:46;;;;;;;7.85;6.93;;;29.10;68.30;;;;;;5092293;28;20208;-64
2021/07/23 10:18:14;;;;;;;11.52;8.68;;;29.00;69.10;;;;;;5091902;28;20241;-62
2021/07/23 10:20:41;;;;;;;11.13;6.90;;;29.10;69.10;;;;;;5092262;28;20562;-62
2021/07/23 10:23:08;;;;;;;8.30;7.45;;;29.30;67.90;;;;;;5092030;28;20243;-61
2021/07/23 10:25:37;;;;;;;7.68;6.82;;;29.50;68.10;;;;;;5092275;28;20200;-62
2021/07/23 10:28:05;;;;;;;8.80;7.28;;;29.60;67.10;;;;;;5091616;28;20224;-62
2021/07/23 10:30:33;;;;;;;9.80;7.18;;;29.60;68.20;;;;;;5092470;28;20219;-62
2021/07/23 10:33:00;;;;;;;9.35;6.75;;;29.60;67.10;;;;;;5092294;28;20232;-62
2021/07/23 10:35:31;;;;;;;8.18;6.93;;;29.60;66.70;;;;;;5091475;28;20218;-62
2021/07/23 10:37:59;;;;;;;8.80;6.70;;;29.60;66.60;;;;;;5091589;28;20235;-62
2021/07/23 10:40:40;;;;;;;11.70;6.97;;;29.50;67.30;;;;;;5092188;28;20208;-62
2021/07/23 10:43:33;;;;;;;8.25;7.05;;;29.40;67.50;;;;;;5091852;28;20310;-62
2021/07/23 10:46:00;;;;;;;9.75;7.20;;;29.30;67.40;;;;;;5091467;28;20294;-61
2021/07/23 10:48:47;;;;;;;9.80;8.32;;;29.40;67.10;;;;;;5091598;28;20571;-62
2021/07/23 10:51:48;;;;;;;8.23;7.10;;;29.60;66.60;;;;;;5092062;28;20572;-62
2021/07/23 10:54:16;;;;;;;10.20;6.97;;;29.80;65.90;;;;;;5091540;28;20296;-62
2021/07/23 10:57:15;;;;;;;8.95;6.90;;;29.90;65.60;;;;;;5092370;28;20505;-62
2021/07/23 10:59:52;;;;;;;10.85;7.20;;;29.80;65.90;;;;;;5092519;28;20204;-62
2021/07/23 11:02:42;;;;;;;8.15;7.25;;;29.80;66.30;;;;;;5091984;28;20469;-62
2021/07/23 11:05:10;;;;;;;10.32;7.07;;;29.90;66.40;;;;;;5092219;28;20301;-62
2021/07/23 11:07:37;;;;;;;8.25;6.65;;;30.00;65.50;;;;;;5092280;28;20239;-63
2021/07/23 11:10:05;;;;;;;10.95;7.32;;;30.10;65.10;;;;;;5092543;28;20228;-63
2021/07/23 11:12:40;;;;;;;12.20;7.82;;;30.30;64.40;;;;;;5092321;28;20200;-63
2021/07/23 11:15:08;;;;;;;8.23;6.95;;;30.60;63.60;;;;;;5091543;28;20295;-63
2021/07/23 11:17:51;;;;;;;9.77;7.30;;;30.70;64.30;;;;;;5091782;28;20196;-62
2021/07/23 11:20:24;;;;;;;9.95;7.03;;;30.90;63.80;;;;;;5091970;28;20204;-63
2021/07/23 11:22:52;;;;;;;8.52;6.80;;;31.00;63.20;;;;;;5091522;28;20280;-61
2021/07/23 11:25:20;;;;;;;8.38;7.07;;;31.20;62.90;;;;;;5091402;28;20222;-61
2021/07/23 11:27:53;;;;;;;8.15;6.90;;;31.20;62.60;;;;;;5091232;28;20601;-61
2021/07/23 11:30:21;;;;;;;10.75;7.18;;;31.30;62.00;;;;;;5091785;28;20212;-62
2021/07/23 11:32:50;;;;;;;9.05;6.78;;;31.30;61.40;;;;;;5090587;28;20285;-63
2021/07/23 11:35:17;;;;;;;8.63;6.97;;;31.30;61.10;;;;;;5091337;28;20579;-63
2021/07/23 11:37:43;;;;;;;7.80;6.65;;;31.40;61.10;;;;;;5091549;28;20207;-62
2021/07/23 11:40:12;;;;;;;8.77;7.03;;;31.50;60.30;;;;;;5091433;28;20205;-62
2021/07/23 11:42:40;;;;;;;8.75;6.72;;;31.40;60.00;;;;;;5092129;28;20212;-62
2021/07/23 11:45:10;;;;;;;9.98;7.07;;;31.20;60.40;;;;;;5092214;28;20200;-62
2021/07/23 11:47:38;;;;;;;8.13;7.18;;;31.20;60.20;;;;;;5091461;28;20709;-63
2021/07/23 11:50:09;;;;;;;9.35;7.25;;;31.00;59.90;;;;;;5091285;28;20227;-63
2021/07/23 11:52:36;;;;;;;11.18;6.90;;;30.80;61.80;;;;;;5090946;28;20212;-62
2021/07/23 11:55:05;;;;;;;11.95;6.80;;;30.90;61.70;;;;;;5090909;28;20208;-62
2021/07/23 11:57:39;;;;;;;7.70;6.90;;;31.10;61.20;;;;;;5091053;28;20211;-63
2021/07/23 12:00:21;;;;;;;7.38;6.65;;;31.20;60.90;;;;;;5091420;28;20759;-62
2021/07/23 12:02:48;;;;;;;9.43;7.07;;;31.40;60.50;;;;;;5090849;28;20208;-63
2021/07/23 12:05:16;;;;;;;8.30;6.28;;;31.50;59.70;;;;;;5073965;28;20213;-63
2021/07/23 12:07:45;;;;;;;13.15;7.35;;;31.60;59.70;;;;;;5070675;28;20228;-64
2021/07/23 12:10:14;;;;;;;8.82;6.55;;;31.70;58.90;;;;;;5070648;28;20212;-64
2021/07/23 12:12:41;;;;;;;7.45;6.68;;;31.70;58.20;;;;;;5070012;28;20215;-64
2021/07/23 12:15:11;;;;;;;7.38;6.43;;;31.70;57.90;;;;;;5070575;28;20588;-62
2021/07/23 12:17:42;;;;;;;7.65;6.60;;;31.80;57.70;;;;;;5070468;28;20209;-64
2021/07/23 12:20:10;;;;;;;10.65;6.65;;;31.80;57.80;;;;;;5069967;28;20208;-64
2021/07/23 12:22:37;;;;;;;10.00;7.30;;;31.90;57.80;;;;;;5070717;28;20247;-63
2021/07/23 12:25:17;;;;;;;7.65;6.50;;;32.00;57.90;;;;;;5071177;28;20619;-66
2021/07/23 12:27:44;;;;;;;9.38;6.88;;;32.10;57.00;;;;;;5070165;28;20278;-63
2021/07/23 12:30:13;;;;;;;7.82;6.78;;;32.00;56.40;;;;;;5070170;28;20239;-61
2021/07/23 12:32:40;;;;;;;8.70;7.40;;;31.70;55.50;;;;;;5070522;28;20208;-61
2021/07/23 12:35:08;;;;;;;7.00;6.30;;;31.50;57.00;;;;;;5069975;28;20624;-60
2021/07/23 12:37:35;;;;;;;7.93;6.93;;;31.50;57.80;;;;;;5070215;28;20197;-60
2021/07/23 12:40:03;;;;;;;10.45;6.93;;;31.60;57.90;;;;;;5070668;28;20216;-60
2021/07/23 12:42:30;;;;;;;9.40;7.13;;;31.50;57.50;;;;;;5070457;28;20213;-62
2021/07/23 12:44:57;;;;;;;7.78;6.97;;;31.50;57.40;;;;;;5071643;28;20204;-60
2021/07/23 12:47:27;;;;;;;8.02;6.95;;;31.60;57.40;;;;;;5074466;28;20286;-61